Impacts TAF Board INFO
FOR SITUATIONAL AWARENESS. NOT TO BE USED FOR FLIGHT PLANNING PURPOSES.
IDs:

KSLC - Salt Lake City Intl, UT, US

Issued at 0540 UTC 18 Feb 2018
Updated at 0653 UTC 18 Feb 2018
Potential Impact None Slight Moderate High
Time0554Z 18/07Z 18/08Z 18/09Z 18/10Z 18/11Z 18/12Z 18/13Z 18/14Z 18/15Z 18/16Z 18/17Z 18/18Z 18/19Z>>
Type OBS PRVL PRVL PRVL PRVL PRVL PRVL PRVL PRVL PRVL PRVL PRVL PRVL PRVL
VIS 10 >6 >6 >6 >6 >6 >6 >6 >6 >6 >6 >6 >6 >6
CIG 200 150 150 150 150 150 150 150 150 150 150 60 60 60
Cover BKN BKN BKN BKN BKN BKN BKN BKN BKN BKN BKN BKN BKN BKN
FltCat VFR VFR VFR VFR VFR VFR VFR VFR VFR VFR VFR VFR VFR VFR
WX -- -- -- -- -- -- -- -- -- -- -- VCSH VCSH VCSH
WDir 190 170 170 170 170 170 170 170 170 170 170 180 180 180
WSpd 20 18 18 18 18 18 18 18 18 18 18 20 20 20
WGst 26 28 28 28 28 28 28 28 28 28 28 30 30 30

Raw TAF
KSLC 180540Z 1806/1912 17018G28KT P6SM SCT090 BKN150
  FM181700 18020G30KT P6SM VCSH SCT030 BKN060
  FM182100 29022G30KT 5SM -SHRASN SCT025 BKN040
  FM182300 30014G27KT 3/4SM -SN BR BKN006 OVC020
  FM190300 33011G18KT 2SM -SHSN BR BKN012 OVC025


Raw METAR
KSLC 180554Z 19020G26KT 10SM FEW100 BKN200 13/M08 A2974 RMK AO2 PK WND 19026/0547 SLP048 T01331083 10150 20128 56027
KSLC 180454Z 17020G26KT 10SM SCT100 SCT200 13/M08 A2976 RMK AO2 PK WND 17026/0453 SLP057 T01331083
KSLC 180354Z 18014KT 10SM SCT100 SCT200 13/M09 A2980 RMK AO2 SLP076 T01281089

METAR Board
Radar Display
Forecast Discussion

FOR SITUATIONAL AWARENESS. NOT TO BE USED FOR FLIGHT PLANNING PURPOSES.